createdAt,value
2023-05-03T00:00:35.897Z,90.20
2023-05-03T00:05:40.041Z,90.30
2023-05-03T00:10:45.393Z,90.40
2023-05-03T00:15:49.073Z,90.40
2023-05-03T00:20:55.050Z,90.70
2023-05-03T00:26:00.731Z,90.80
2023-05-03T00:31:10.611Z,90.90
2023-05-03T00:36:15.438Z,91.00
2023-05-03T00:41:20.173Z,91.00
2023-05-03T00:46:23.529Z,91.10
2023-05-03T00:51:28.860Z,91.20
2023-05-03T00:56:47.878Z,91.30
2023-05-03T01:01:55.340Z,91.70
2023-05-03T01:07:10.829Z,91.80
2023-05-03T01:12:25.309Z,92.00
2023-05-03T01:17:31.573Z,92.60
2023-05-03T01:22:44.142Z,92.90
2023-05-03T01:27:49.169Z,93.30
2023-05-03T01:33:01.583Z,93.40
2023-05-03T01:38:06.528Z,93.70
2023-05-03T01:43:13.753Z,94.20
2023-05-03T01:48:18.773Z,94.50
2023-05-03T01:53:22.565Z,94.90
2023-05-03T01:58:27.776Z,95.30
2023-05-03T02:03:31.408Z,95.30
2023-05-03T02:08:35.120Z,95.50
2023-05-03T02:13:40.627Z,95.40
2023-05-03T02:18:44.967Z,95.40
2023-05-03T02:23:48.258Z,95.50
2023-05-03T02:28:52.962Z,95.60
2023-05-03T02:33:56.732Z,95.80
2023-05-03T02:39:00.450Z,96.00
2023-05-03T02:44:05.768Z,96.10
2023-05-03T02:49:09.776Z,96.40
2023-05-03T02:54:13.069Z,96.60
2023-05-03T02:59:17.879Z,96.80
2023-05-03T03:04:21.272Z,96.90
2023-05-03T03:09:24.612Z,97.00
2023-05-03T03:14:29.651Z,97.20
2023-05-03T03:19:33.058Z,97.50
2023-05-03T03:24:38.659Z,97.50
2023-05-03T03:29:43.816Z,97.70
2023-05-03T03:34:49.982Z,97.90
2023-05-03T03:39:54.426Z,98.20
2023-05-03T03:45:00.339Z,98.40
2023-05-03T03:50:04.235Z,98.50
2023-05-03T03:55:09.764Z,98.90
2023-05-03T04:00:16.203Z,98.80
2023-05-03T04:05:25.979Z,99.00
2023-05-03T04:10:30.807Z,99.10
2023-05-03T04:15:35.847Z,99.20
2023-05-03T04:20:41.318Z,99.40
2023-05-03T04:25:48.986Z,99.40
2023-05-03T04:30:59.210Z,99.30
2023-05-03T04:36:04.662Z,99.20
2023-05-03T04:41:09.242Z,99.10
2023-05-03T04:46:15.672Z,98.90
2023-05-03T04:51:19.033Z,98.70
2023-05-03T04:56:26.427Z,98.40
2023-05-03T05:01:37.096Z,97.90
2023-05-03T05:06:42.780Z,97.40
2023-05-03T05:11:50.525Z,97.30
2023-05-03T05:16:55.948Z,97.30
2023-05-03T05:21:59.392Z,96.90
2023-05-03T05:27:12.871Z,96.80
2023-05-03T05:32:17.944Z,96.80
2023-05-03T05:37:21.482Z,96.60
2023-05-03T05:42:25.572Z,96.50
2023-05-03T05:47:30.495Z,96.30
2023-05-03T05:52:35.477Z,96.30
2023-05-03T05:57:40.582Z,95.90
2023-05-03T06:02:46.783Z,95.60
2023-05-03T06:07:54.419Z,95.30
2023-05-03T06:12:58.629Z,95.00
2023-05-03T06:18:05.682Z,94.70
2023-05-03T06:23:09.396Z,94.50
2023-05-03T06:28:14.280Z,94.30
2023-05-03T06:33:19.349Z,94.00
2023-05-03T06:38:26.905Z,93.50
2023-05-03T06:43:30.683Z,93.20
2023-05-03T06:48:40.381Z,92.90
2023-05-03T06:53:43.655Z,92.50
2023-05-03T06:58:46.831Z,92.20
2023-05-03T07:03:51.629Z,91.80
2023-05-03T07:08:55.372Z,91.40
2023-05-03T07:13:58.605Z,91.00
2023-05-03T07:19:03.304Z,90.60
2023-05-03T07:24:07.948Z,90.20
2023-05-03T07:29:11.551Z,89.20
2023-05-03T07:34:16.463Z,87.00
2023-05-03T07:39:19.800Z,85.90
2023-05-03T07:44:23.886Z,84.60
2023-05-03T07:49:28.959Z,83.80
2023-05-03T07:54:32.700Z,83.10
2023-05-03T07:59:36.307Z,82.30
2023-05-03T08:04:41.668Z,81.10
2023-05-03T08:09:45.333Z,80.20
2023-05-03T08:14:49.065Z,79.70
2023-05-03T08:19:56.568Z,78.80
2023-05-03T08:25:00.612Z,77.50
2023-05-03T08:30:05.428Z,76.50
2023-05-03T08:35:13.873Z,74.60
2023-05-03T08:40:17.144Z,74.10
2023-05-03T08:45:20.402Z,73.30
2023-05-03T08:50:27.045Z,73.20
2023-05-03T08:55:30.283Z,72.60
2023-05-03T09:00:33.567Z,72.50
2023-05-03T09:05:41.424Z,72.40
2023-05-03T09:10:44.794Z,72.00
2023-05-03T09:15:55.381Z,70.90
2023-05-03T09:21:00.180Z,69.60
2023-05-03T09:26:03.572Z,69.30
2023-05-03T09:31:10.178Z,69.50
2023-05-03T09:36:15.923Z,68.70
2023-05-03T09:41:28.986Z,68.30
2023-05-03T09:46:33.318Z,68.00
2023-05-03T09:51:41.301Z,67.50
2023-05-03T09:56:47.295Z,66.50
2023-05-03T10:01:51.959Z,65.30
2023-05-03T10:07:00.878Z,65.60
2023-05-03T10:12:08.341Z,65.80
2023-05-03T10:17:17.899Z,65.30
2023-05-03T10:22:22.745Z,65.00
2023-05-03T10:27:26.212Z,65.20
2023-05-03T10:32:34.452Z,64.50
2023-05-03T10:37:42.521Z,64.60
2023-05-03T10:42:46.994Z,65.00
2023-05-03T10:48:20.824Z,64.60
2023-05-03T10:53:40.600Z,64.60
2023-05-03T10:58:45.702Z,63.90
2023-05-03T11:03:57.066Z,63.90
2023-05-03T11:09:04.156Z,63.90
2023-05-03T11:14:07.538Z,64.00
2023-05-03T11:19:11.598Z,64.00
2023-05-03T11:24:16.220Z,63.80
2023-05-03T11:29:21.053Z,63.50
2023-05-03T11:34:25.064Z,63.60
2023-05-03T11:39:30.725Z,63.60
2023-05-03T11:44:34.051Z,63.40
2023-05-03T11:49:37.317Z,63.10
2023-05-03T11:54:41.901Z,62.70
2023-05-03T11:59:45.736Z,62.60
2023-05-03T12:04:49.265Z,62.20
2023-05-03T12:10:06.340Z,62.60
2023-05-03T12:15:27.762Z,62.90
2023-05-03T12:25:42.873Z,62.20
2023-05-03T12:30:48.024Z,61.80
2023-05-03T12:35:53.341Z,62.00
2023-05-03T12:40:58.914Z,61.80
2023-05-03T12:46:25.187Z,61.90
2023-05-03T12:51:27.920Z,61.40
2023-05-03T12:56:39.403Z,61.10
2023-05-03T13:06:57.882Z,60.40
2023-05-03T13:12:04.330Z,59.60
2023-05-03T13:17:08.337Z,59.10
2023-05-03T13:22:13.297Z,58.90
2023-05-03T13:27:18.954Z,58.90
2023-05-03T13:32:22.992Z,58.90
2023-05-03T13:37:27.100Z,58.40
2023-05-03T13:42:31.783Z,58.80
2023-05-03T13:47:59.989Z,58.60
2023-05-03T13:52:58.621Z,58.70
2023-05-03T13:58:03.650Z,58.40
2023-05-03T14:03:07.845Z,58.40
2023-05-03T14:08:11.325Z,58.30
2023-05-03T14:13:16.443Z,58.20
2023-05-03T14:18:19.909Z,57.70
2023-05-03T14:23:24.490Z,57.90
2023-05-03T14:28:29.118Z,58.10
2023-05-03T14:33:32.794Z,57.80
2023-05-03T14:38:35.991Z,57.90
2023-05-03T14:43:40.592Z,57.70
2023-05-03T14:48:43.811Z,57.80
2023-05-03T14:53:47.029Z,57.70
2023-05-03T14:58:51.817Z,57.70
2023-05-03T15:03:54.998Z,57.40
2023-05-03T15:08:58.275Z,57.40
2023-05-03T15:14:02.991Z,57.20
2023-05-03T15:19:07.422Z,57.30
2023-05-03T15:24:11.129Z,57.60
2023-05-03T15:29:16.481Z,57.40
2023-05-03T15:34:19.916Z,57.50
2023-05-03T15:39:24.577Z,57.50
2023-05-03T15:44:29.519Z,57.60
2023-05-03T15:49:33.113Z,57.60
2023-05-03T15:54:36.695Z,57.50
2023-05-03T15:59:41.660Z,57.30
2023-05-03T16:04:45.698Z,57.40
2023-05-03T16:09:49.651Z,57.30
2023-05-03T16:14:55.623Z,57.50
2023-05-03T16:19:58.818Z,57.40
2023-05-03T16:25:02.081Z,57.30
2023-05-03T16:30:08.131Z,57.00
2023-05-03T16:35:11.754Z,56.70
2023-05-03T16:40:15.088Z,56.40
2023-05-03T16:45:20.317Z,56.20
2023-05-03T16:50:23.980Z,55.40
2023-05-03T16:55:27.750Z,55.10
2023-05-03T17:00:33.208Z,55.00
2023-05-03T17:05:36.973Z,53.90
2023-05-03T17:10:40.581Z,53.60
2023-05-03T17:15:45.562Z,53.30
2023-05-03T17:20:48.928Z,53.10
2023-05-03T17:25:59.057Z,53.40
2023-05-03T17:31:04.690Z,53.50
2023-05-03T17:36:08.473Z,53.10
2023-05-03T17:41:12.665Z,53.20
2023-05-03T17:46:18.110Z,53.00
2023-05-03T17:51:22.130Z,52.90
2023-05-03T17:56:25.938Z,52.90
2023-05-03T18:01:30.637Z,53.10
2023-05-03T18:06:34.601Z,53.10
2023-05-03T18:11:38.272Z,53.40
2023-05-03T18:16:43.907Z,54.00
2023-05-03T18:21:47.758Z,54.90
2023-05-03T18:26:51.378Z,55.60
2023-05-03T18:31:57.739Z,56.50
2023-05-03T18:37:01.426Z,57.20
2023-05-03T18:42:05.155Z,58.00
2023-05-03T18:47:13.337Z,58.80
2023-05-03T18:52:17.125Z,59.40
2023-05-03T18:57:22.699Z,59.90
2023-05-03T19:02:31.463Z,60.70
2023-05-03T19:07:35.512Z,61.10
2023-05-03T19:12:40.776Z,61.80
2023-05-03T19:17:47.368Z,62.40
2023-05-03T19:22:51.008Z,62.90
2023-05-03T19:27:54.589Z,63.40
2023-05-03T19:32:59.438Z,64.80
2023-05-03T19:38:02.950Z,65.00
2023-05-03T19:43:07.303Z,65.30
2023-05-03T19:48:13.244Z,65.70
2023-05-03T19:53:18.417Z,66.20
2023-05-03T19:58:22.619Z,66.80
2023-05-03T20:03:27.633Z,67.20
2023-05-03T20:08:32.530Z,67.60
2023-05-03T20:13:35.864Z,68.10
2023-05-03T20:18:40.739Z,68.50
2023-05-03T20:23:44.028Z,68.60
2023-05-03T20:28:47.495Z,69.20
2023-05-03T20:33:52.268Z,69.60
2023-05-03T20:38:55.804Z,70.10
2023-05-03T20:43:59.605Z,71.00
2023-05-03T20:49:05.329Z,71.60
2023-05-03T20:54:09.008Z,72.20
2023-05-03T20:59:12.303Z,72.70
2023-05-03T21:04:16.867Z,73.20
2023-05-03T21:09:20.296Z,73.70
2023-05-03T21:14:23.508Z,73.90
2023-05-03T21:19:28.602Z,74.30
2023-05-03T21:24:32.024Z,74.30
2023-05-03T21:29:35.251Z,74.50
2023-05-03T21:34:39.794Z,74.80
2023-05-03T21:39:47.845Z,75.40
2023-05-03T21:44:57.691Z,75.90
2023-05-03T21:50:03.150Z,76.30
2023-05-03T21:55:06.920Z,76.50
2023-05-03T22:00:16.791Z,76.80
2023-05-03T22:05:21.842Z,77.00
2023-05-03T22:10:25.074Z,77.40
2023-05-03T22:15:28.377Z,78.10
2023-05-03T22:20:32.993Z,78.30
2023-05-03T22:25:36.307Z,78.40
2023-05-03T22:30:39.496Z,78.60
2023-05-03T22:35:44.142Z,78.60
2023-05-03T22:40:47.349Z,79.10
2023-05-03T22:45:50.521Z,79.40
2023-05-03T22:50:55.221Z,79.50
2023-05-03T22:55:58.892Z,79.70
2023-05-03T23:01:02.115Z,79.60
2023-05-03T23:06:07.282Z,79.60
2023-05-03T23:11:10.645Z,79.40
2023-05-03T23:16:14.654Z,79.80
2023-05-03T23:21:19.662Z,80.10
2023-05-03T23:26:23.284Z,80.80
2023-05-03T23:31:28.574Z,81.20
2023-05-03T23:36:36.702Z,81.90
2023-05-03T23:41:40.312Z,82.80
2023-05-03T23:46:43.997Z,83.40
2023-05-03T23:51:48.998Z,83.20
2023-05-03T23:56:53.003Z,83.60
